sensor_id;sensor_type;location;lat;lon;timestamp;P1;durP1;ratioP1;P2;durP2;ratioP2
67902;SDS011;54708;43.612;1.568;2023-11-19T00:01:06;14.32;;;9.80;;
67902;SDS011;54708;43.612;1.568;2023-11-19T00:03:32;13.38;;;8.63;;
67902;SDS011;54708;43.612;1.568;2023-11-19T00:05:58;14.13;;;8.73;;
67902;SDS011;54708;43.612;1.568;2023-11-19T00:08:24;13.82;;;9.40;;
67902;SDS011;54708;43.612;1.568;2023-11-19T00:10:49;15.20;;;10.23;;
67902;SDS011;54708;43.612;1.568;2023-11-19T00:13:16;11.98;;;9.45;;
67902;SDS011;54708;43.612;1.568;2023-11-19T00:15:41;14.07;;;10.00;;
67902;SDS011;54708;43.612;1.568;2023-11-19T00:18:07;13.43;;;10.05;;
67902;SDS011;54708;43.612;1.568;2023-11-19T00:20:32;16.08;;;10.45;;
67902;SDS011;54708;43.612;1.568;2023-11-19T00:22:57;20.35;;;10.75;;
67902;SDS011;54708;43.612;1.568;2023-11-19T00:25:23;16.55;;;10.75;;
67902;SDS011;54708;43.612;1.568;2023-11-19T00:27:48;17.42;;;11.10;;
67902;SDS011;54708;43.612;1.568;2023-11-19T00:30:15;16.38;;;10.02;;
67902;SDS011;54708;43.612;1.568;2023-11-19T00:32:41;14.95;;;11.20;;
67902;SDS011;54708;43.612;1.568;2023-11-19T00:35:07;13.80;;;9.30;;
67902;SDS011;54708;43.612;1.568;2023-11-19T00:37:33;16.70;;;10.95;;
67902;SDS011;54708;43.612;1.568;2023-11-19T00:39:58;15.60;;;10.60;;
67902;SDS011;54708;43.612;1.568;2023-11-19T00:42:24;15.35;;;9.02;;
67902;SDS011;54708;43.612;1.568;2023-11-19T00:44:50;13.80;;;9.95;;
67902;SDS011;54708;43.612;1.568;2023-11-19T00:47:15;17.48;;;9.48;;
67902;SDS011;54708;43.612;1.568;2023-11-19T00:49:41;14.52;;;9.27;;
67902;SDS011;54708;43.612;1.568;2023-11-19T00:52:07;18.67;;;10.32;;
67902;SDS011;54708;43.612;1.568;2023-11-19T00:54:33;15.52;;;10.10;;
67902;SDS011;54708;43.612;1.568;2023-11-19T00:56:58;12.88;;;9.57;;
67902;SDS011;54708;43.612;1.568;2023-11-19T00:59:24;15.10;;;10.45;;
67902;SDS011;54708;43.612;1.568;2023-11-19T01:01:49;15.02;;;10.00;;
67902;SDS011;54708;43.612;1.568;2023-11-19T01:04:16;15.38;;;10.63;;
67902;SDS011;54708;43.612;1.568;2023-11-19T01:06:41;15.48;;;10.65;;
67902;SDS011;54708;43.612;1.568;2023-11-19T01:09:07;20.33;;;11.43;;
67902;SDS011;54708;43.612;1.568;2023-11-19T01:11:33;17.20;;;11.35;;
67902;SDS011;54708;43.612;1.568;2023-11-19T01:13:59;16.85;;;10.93;;
67902;SDS011;54708;43.612;1.568;2023-11-19T01:16:25;27.02;;;13.07;;
67902;SDS011;54708;43.612;1.568;2023-11-19T01:18:51;14.45;;;11.25;;
67902;SDS011;54708;43.612;1.568;2023-11-19T01:21:17;16.20;;;11.48;;
67902;SDS011;54708;43.612;1.568;2023-11-19T01:23:42;16.92;;;11.52;;
67902;SDS011;54708;43.612;1.568;2023-11-19T01:26:11;19.00;;;12.20;;
67902;SDS011;54708;43.612;1.568;2023-11-19T01:28:37;17.75;;;12.52;;
67902;SDS011;54708;43.612;1.568;2023-11-19T01:31:04;17.63;;;11.90;;
67902;SDS011;54708;43.612;1.568;2023-11-19T01:33:30;17.55;;;12.77;;
67902;SDS011;54708;43.612;1.568;2023-11-19T01:35:55;19.20;;;13.23;;
67902;SDS011;54708;43.612;1.568;2023-11-19T01:38:23;20.73;;;14.40;;
67902;SDS011;54708;43.612;1.568;2023-11-19T01:40:49;19.75;;;12.77;;
67902;SDS011;54708;43.612;1.568;2023-11-19T01:43:30;22.60;;;14.85;;
67902;SDS011;54708;43.612;1.568;2023-11-19T01:46:00;17.65;;;13.52;;
67902;SDS011;54708;43.612;1.568;2023-11-19T01:48:26;26.88;;;13.52;;
67902;SDS011;54708;43.612;1.568;2023-11-19T01:50:51;19.20;;;11.95;;
67902;SDS011;54708;43.612;1.568;2023-11-19T01:53:17;21.50;;;13.73;;
67902;SDS011;54708;43.612;1.568;2023-11-19T01:55:43;23.20;;;14.50;;
67902;SDS011;54708;43.612;1.568;2023-11-19T01:58:09;21.55;;;12.75;;
67902;SDS011;54708;43.612;1.568;2023-11-19T02:00:34;20.88;;;13.02;;
67902;SDS011;54708;43.612;1.568;2023-11-19T02:02:59;22.15;;;14.02;;
67902;SDS011;54708;43.612;1.568;2023-11-19T02:05:25;22.05;;;13.30;;
67902;SDS011;54708;43.612;1.568;2023-11-19T02:07:51;22.00;;;13.38;;
67902;SDS011;54708;43.612;1.568;2023-11-19T02:10:17;26.92;;;13.88;;
67902;SDS011;54708;43.612;1.568;2023-11-19T02:12:44;19.52;;;13.52;;
67902;SDS011;54708;43.612;1.568;2023-11-19T02:15:10;21.17;;;14.05;;
67902;SDS011;54708;43.612;1.568;2023-11-19T02:17:35;20.23;;;14.63;;
67902;SDS011;54708;43.612;1.568;2023-11-19T02:20:03;21.35;;;13.57;;
67902;SDS011;54708;43.612;1.568;2023-11-19T02:22:31;21.63;;;14.70;;
67902;SDS011;54708;43.612;1.568;2023-11-19T02:24:59;19.95;;;14.77;;
67902;SDS011;54708;43.612;1.568;2023-11-19T02:30:11;22.58;;;13.85;;
67902;SDS011;54708;43.612;1.568;2023-11-19T02:32:40;22.02;;;13.77;;
67902;SDS011;54708;43.612;1.568;2023-11-19T02:35:06;22.33;;;12.60;;
67902;SDS011;54708;43.612;1.568;2023-11-19T02:37:33;23.35;;;14.40;;
67902;SDS011;54708;43.612;1.568;2023-11-19T02:39:59;24.48;;;15.25;;
67902;SDS011;54708;43.612;1.568;2023-11-19T02:42:34;20.35;;;13.68;;
67902;SDS011;54708;43.612;1.568;2023-11-19T02:45:00;23.85;;;17.67;;
67902;SDS011;54708;43.612;1.568;2023-11-19T02:47:26;18.73;;;14.00;;
67902;SDS011;54708;43.612;1.568;2023-11-19T02:49:55;19.80;;;14.45;;
67902;SDS011;54708;43.612;1.568;2023-11-19T02:52:20;23.60;;;13.73;;
67902;SDS011;54708;43.612;1.568;2023-11-19T02:54:46;20.30;;;13.52;;
67902;SDS011;54708;43.612;1.568;2023-11-19T02:57:11;20.05;;;13.50;;
67902;SDS011;54708;43.612;1.568;2023-11-19T02:59:38;19.65;;;13.95;;
67902;SDS011;54708;43.612;1.568;2023-11-19T03:02:07;20.55;;;12.27;;
67902;SDS011;54708;43.612;1.568;2023-11-19T03:04:37;13.73;;;10.35;;
67902;SDS011;54708;43.612;1.568;2023-11-19T03:07:05;17.75;;;12.45;;
67902;SDS011;54708;43.612;1.568;2023-11-19T03:09:32;15.45;;;11.80;;
67902;SDS011;54708;43.612;1.568;2023-11-19T03:11:58;14.85;;;11.55;;
67902;SDS011;54708;43.612;1.568;2023-11-19T03:14:24;15.75;;;12.75;;
67902;SDS011;54708;43.612;1.568;2023-11-19T03:16:49;18.27;;;12.48;;
67902;SDS011;54708;43.612;1.568;2023-11-19T03:19:15;21.38;;;13.77;;
67902;SDS011;54708;43.612;1.568;2023-11-19T03:21:41;18.08;;;12.05;;
67902;SDS011;54708;43.612;1.568;2023-11-19T03:24:06;18.77;;;10.93;;
67902;SDS011;54708;43.612;1.568;2023-11-19T03:26:33;14.18;;;10.65;;
67902;SDS011;54708;43.612;1.568;2023-11-19T03:28:59;15.35;;;11.32;;
67902;SDS011;54708;43.612;1.568;2023-11-19T03:31:24;16.88;;;11.25;;
67902;SDS011;54708;43.612;1.568;2023-11-19T03:33:50;15.98;;;10.45;;
67902;SDS011;54708;43.612;1.568;2023-11-19T03:36:15;15.43;;;11.52;;
67902;SDS011;54708;43.612;1.568;2023-11-19T03:38:40;14.13;;;10.85;;
67902;SDS011;54708;43.612;1.568;2023-11-19T03:41:16;19.35;;;11.32;;
67902;SDS011;54708;43.612;1.568;2023-11-19T03:43:42;16.92;;;10.10;;
67902;SDS011;54708;43.612;1.568;2023-11-19T03:46:17;17.52;;;10.80;;
67902;SDS011;54708;43.612;1.568;2023-11-19T03:48:43;22.48;;;12.57;;
67902;SDS011;54708;43.612;1.568;2023-11-19T03:51:09;12.85;;;10.23;;
67902;SDS011;54708;43.612;1.568;2023-11-19T03:53:35;16.05;;;11.13;;
67902;SDS011;54708;43.612;1.568;2023-11-19T03:56:00;18.15;;;9.75;;
67902;SDS011;54708;43.612;1.568;2023-11-19T03:58:26;17.83;;;10.75;;
67902;SDS011;54708;43.612;1.568;2023-11-19T04:00:51;14.07;;;10.02;;
67902;SDS011;54708;43.612;1.568;2023-11-19T04:03:17;18.63;;;11.10;;
67902;SDS011;54708;43.612;1.568;2023-11-19T04:05:44;15.85;;;11.35;;
67902;SDS011;54708;43.612;1.568;2023-11-19T04:08:10;18.48;;;10.93;;
67902;SDS011;54708;43.612;1.568;2023-11-19T04:10:35;19.50;;;11.50;;
67902;SDS011;54708;43.612;1.568;2023-11-19T04:13:00;15.85;;;11.60;;
67902;SDS011;54708;43.612;1.568;2023-11-19T04:15:26;14.77;;;10.48;;
67902;SDS011;54708;43.612;1.568;2023-11-19T04:17:51;16.08;;;10.50;;
67902;SDS011;54708;43.612;1.568;2023-11-19T04:20:16;18.48;;;12.23;;
67902;SDS011;54708;43.612;1.568;2023-11-19T04:22:42;17.45;;;10.75;;
67902;SDS011;54708;43.612;1.568;2023-11-19T04:25:07;16.38;;;11.27;;
67902;SDS011;54708;43.612;1.568;2023-11-19T04:27:33;18.65;;;11.45;;
67902;SDS011;54708;43.612;1.568;2023-11-19T04:29:58;13.50;;;9.65;;
67902;SDS011;54708;43.612;1.568;2023-11-19T04:32:26;17.25;;;10.73;;
67902;SDS011;54708;43.612;1.568;2023-11-19T04:34:52;15.00;;;9.88;;
67902;SDS011;54708;43.612;1.568;2023-11-19T04:37:17;14.30;;;10.52;;
67902;SDS011;54708;43.612;1.568;2023-11-19T04:39:44;13.75;;;9.35;;
67902;SDS011;54708;43.612;1.568;2023-11-19T04:42:10;13.25;;;8.68;;
67902;SDS011;54708;43.612;1.568;2023-11-19T04:44:35;15.65;;;8.30;;
67902;SDS011;54708;43.612;1.568;2023-11-19T04:47:01;16.23;;;8.52;;
67902;SDS011;54708;43.612;1.568;2023-11-19T04:49:26;13.85;;;8.30;;
67902;SDS011;54708;43.612;1.568;2023-11-19T04:51:52;13.77;;;8.63;;
67902;SDS011;54708;43.612;1.568;2023-11-19T04:54:18;20.42;;;9.98;;
67902;SDS011;54708;43.612;1.568;2023-11-19T04:56:46;15.18;;;9.63;;
67902;SDS011;54708;43.612;1.568;2023-11-19T04:59:12;18.58;;;10.10;;
67902;SDS011;54708;43.612;1.568;2023-11-19T05:01:38;15.57;;;10.50;;
67902;SDS011;54708;43.612;1.568;2023-11-19T05:04:03;14.40;;;10.55;;
67902;SDS011;54708;43.612;1.568;2023-11-19T05:06:29;19.15;;;9.43;;
67902;SDS011;54708;43.612;1.568;2023-11-19T05:08:55;16.73;;;10.52;;
67902;SDS011;54708;43.612;1.568;2023-11-19T05:11:21;16.73;;;12.65;;
67902;SDS011;54708;43.612;1.568;2023-11-19T05:13:47;16.15;;;10.35;;
67902;SDS011;54708;43.612;1.568;2023-11-19T05:16:12;19.60;;;12.07;;
67902;SDS011;54708;43.612;1.568;2023-11-19T05:18:39;19.83;;;12.07;;
67902;SDS011;54708;43.612;1.568;2023-11-19T05:21:05;15.10;;;11.20;;
67902;SDS011;54708;43.612;1.568;2023-11-19T05:23:30;14.80;;;10.77;;
67902;SDS011;54708;43.612;1.568;2023-11-19T05:25:56;14.68;;;11.52;;
67902;SDS011;54708;43.612;1.568;2023-11-19T05:28:23;15.35;;;11.38;;
67902;SDS011;54708;43.612;1.568;2023-11-19T05:30:49;18.08;;;11.52;;
67902;SDS011;54708;43.612;1.568;2023-11-19T05:33:15;16.52;;;10.80;;
67902;SDS011;54708;43.612;1.568;2023-11-19T05:35:40;18.35;;;11.02;;
67902;SDS011;54708;43.612;1.568;2023-11-19T05:38:05;15.23;;;10.43;;
67902;SDS011;54708;43.612;1.568;2023-11-19T05:40:31;15.68;;;11.45;;
67902;SDS011;54708;43.612;1.568;2023-11-19T05:42:56;16.83;;;12.27;;
67902;SDS011;54708;43.612;1.568;2023-11-19T05:45:22;15.27;;;10.27;;
67902;SDS011;54708;43.612;1.568;2023-11-19T05:47:47;13.65;;;10.50;;
67902;SDS011;54708;43.612;1.568;2023-11-19T05:50:12;17.58;;;11.00;;
67902;SDS011;54708;43.612;1.568;2023-11-19T05:52:39;16.75;;;11.52;;
67902;SDS011;54708;43.612;1.568;2023-11-19T05:55:04;16.30;;;11.85;;
67902;SDS011;54708;43.612;1.568;2023-11-19T05:57:34;19.40;;;11.35;;
67902;SDS011;54708;43.612;1.568;2023-11-19T06:00:00;18.23;;;13.55;;
67902;SDS011;54708;43.612;1.568;2023-11-19T06:02:25;19.15;;;12.65;;
67902;SDS011;54708;43.612;1.568;2023-11-19T06:04:52;16.60;;;11.70;;
67902;SDS011;54708;43.612;1.568;2023-11-19T06:07:18;20.40;;;13.10;;
67902;SDS011;54708;43.612;1.568;2023-11-19T06:09:43;15.30;;;11.68;;
67902;SDS011;54708;43.612;1.568;2023-11-19T06:12:08;16.10;;;10.82;;
67902;SDS011;54708;43.612;1.568;2023-11-19T06:14:34;24.75;;;14.25;;
67902;SDS011;54708;43.612;1.568;2023-11-19T06:16:59;16.65;;;11.75;;
67902;SDS011;54708;43.612;1.568;2023-11-19T06:19:25;14.85;;;12.20;;
67902;SDS011;54708;43.612;1.568;2023-11-19T06:21:50;16.38;;;12.85;;
67902;SDS011;54708;43.612;1.568;2023-11-19T06:24:15;16.20;;;12.25;;
67902;SDS011;54708;43.612;1.568;2023-11-19T06:26:41;17.15;;;12.40;;
67902;SDS011;54708;43.612;1.568;2023-11-19T06:29:06;22.65;;;12.38;;
67902;SDS011;54708;43.612;1.568;2023-11-19T06:31:32;12.93;;;10.23;;
67902;SDS011;54708;43.612;1.568;2023-11-19T06:33:57;16.38;;;11.60;;
67902;SDS011;54708;43.612;1.568;2023-11-19T06:36:22;18.80;;;11.90;;
67902;SDS011;54708;43.612;1.568;2023-11-19T06:38:48;16.80;;;13.13;;
67902;SDS011;54708;43.612;1.568;2023-11-19T06:41:13;17.90;;;13.13;;
67902;SDS011;54708;43.612;1.568;2023-11-19T06:43:38;13.32;;;10.52;;
67902;SDS011;54708;43.612;1.568;2023-11-19T06:46:04;18.35;;;13.45;;
67902;SDS011;54708;43.612;1.568;2023-11-19T06:48:31;18.75;;;13.38;;
67902;SDS011;54708;43.612;1.568;2023-11-19T06:50:57;19.90;;;13.65;;
67902;SDS011;54708;43.612;1.568;2023-11-19T06:53:23;21.75;;;14.50;;
67902;SDS011;54708;43.612;1.568;2023-11-19T06:55:48;22.35;;;14.65;;
67902;SDS011;54708;43.612;1.568;2023-11-19T06:58:13;21.08;;;14.20;;
67902;SDS011;54708;43.612;1.568;2023-11-19T07:00:39;24.13;;;15.55;;
67902;SDS011;54708;43.612;1.568;2023-11-19T07:03:04;23.45;;;13.65;;
67902;SDS011;54708;43.612;1.568;2023-11-19T07:05:35;20.58;;;14.48;;
67902;SDS011;54708;43.612;1.568;2023-11-19T07:08:03;22.50;;;14.55;;
67902;SDS011;54708;43.612;1.568;2023-11-19T07:10:28;18.25;;;12.77;;
67902;SDS011;54708;43.612;1.568;2023-11-19T07:12:55;16.70;;;14.02;;
67902;SDS011;54708;43.612;1.568;2023-11-19T07:15:21;18.15;;;12.90;;
67902;SDS011;54708;43.612;1.568;2023-11-19T07:17:46;16.20;;;13.00;;
67902;SDS011;54708;43.612;1.568;2023-11-19T07:20:13;19.80;;;13.65;;
67902;SDS011;54708;43.612;1.568;2023-11-19T07:22:42;18.13;;;11.98;;
67902;SDS011;54708;43.612;1.568;2023-11-19T07:25:10;20.83;;;12.50;;
67902;SDS011;54708;43.612;1.568;2023-11-19T07:27:37;20.73;;;13.25;;
67902;SDS011;54708;43.612;1.568;2023-11-19T07:30:03;16.92;;;12.05;;
67902;SDS011;54708;43.612;1.568;2023-11-19T07:32:30;16.05;;;12.25;;
67902;SDS011;54708;43.612;1.568;2023-11-19T07:34:55;13.13;;;11.23;;
67902;SDS011;54708;43.612;1.568;2023-11-19T07:37:21;14.48;;;11.68;;
67902;SDS011;54708;43.612;1.568;2023-11-19T07:39:47;18.13;;;12.35;;
67902;SDS011;54708;43.612;1.568;2023-11-19T07:42:12;13.93;;;11.18;;
67902;SDS011;54708;43.612;1.568;2023-11-19T07:44:38;14.43;;;11.32;;
67902;SDS011;54708;43.612;1.568;2023-11-19T07:47:03;20.15;;;13.25;;
67902;SDS011;54708;43.612;1.568;2023-11-19T07:49:29;17.30;;;11.50;;
67902;SDS011;54708;43.612;1.568;2023-11-19T07:51:55;15.98;;;12.73;;
67902;SDS011;54708;43.612;1.568;2023-11-19T07:54:21;19.67;;;12.52;;
67902;SDS011;54708;43.612;1.568;2023-11-19T07:56:46;15.30;;;11.82;;
67902;SDS011;54708;43.612;1.568;2023-11-19T07:59:12;16.98;;;12.48;;
67902;SDS011;54708;43.612;1.568;2023-11-19T08:01:37;18.15;;;12.90;;
67902;SDS011;54708;43.612;1.568;2023-11-19T08:04:02;18.80;;;12.65;;
67902;SDS011;54708;43.612;1.568;2023-11-19T08:06:28;22.98;;;14.80;;
67902;SDS011;54708;43.612;1.568;2023-11-19T08:08:53;18.90;;;13.77;;
67902;SDS011;54708;43.612;1.568;2023-11-19T08:11:19;19.08;;;13.82;;
67902;SDS011;54708;43.612;1.568;2023-11-19T08:13:47;20.48;;;13.55;;
67902;SDS011;54708;43.612;1.568;2023-11-19T08:16:12;24.13;;;14.43;;
67902;SDS011;54708;43.612;1.568;2023-11-19T08:18:38;15.52;;;11.98;;
67902;SDS011;54708;43.612;1.568;2023-11-19T08:21:06;18.10;;;11.20;;
67902;SDS011;54708;43.612;1.568;2023-11-19T08:23:31;16.58;;;11.50;;
67902;SDS011;54708;43.612;1.568;2023-11-19T08:25:57;23.85;;;12.27;;
67902;SDS011;54708;43.612;1.568;2023-11-19T08:28:22;14.85;;;11.77;;
67902;SDS011;54708;43.612;1.568;2023-11-19T08:30:48;18.13;;;12.52;;
67902;SDS011;54708;43.612;1.568;2023-11-19T08:33:13;14.77;;;11.25;;
67902;SDS011;54708;43.612;1.568;2023-11-19T08:35:40;16.58;;;11.85;;
67902;SDS011;54708;43.612;1.568;2023-11-19T08:38:05;16.67;;;12.77;;
67902;SDS011;54708;43.612;1.568;2023-11-19T08:40:30;16.23;;;11.20;;
67902;SDS011;54708;43.612;1.568;2023-11-19T08:42:56;16.13;;;9.68;;
67902;SDS011;54708;43.612;1.568;2023-11-19T08:45:22;15.85;;;9.73;;
67902;SDS011;54708;43.612;1.568;2023-11-19T08:47:47;14.93;;;9.98;;
67902;SDS011;54708;43.612;1.568;2023-11-19T08:50:13;15.18;;;7.88;;
67902;SDS011;54708;43.612;1.568;2023-11-19T08:52:38;16.20;;;9.32;;
67902;SDS011;54708;43.612;1.568;2023-11-19T08:55:03;11.48;;;8.02;;
67902;SDS011;54708;43.612;1.568;2023-11-19T08:57:30;14.77;;;8.50;;
67902;SDS011;54708;43.612;1.568;2023-11-19T08:59:56;12.15;;;7.75;;
67902;SDS011;54708;43.612;1.568;2023-11-19T09:02:21;14.10;;;8.95;;
67902;SDS011;54708;43.612;1.568;2023-11-19T09:04:47;12.80;;;8.68;;
67902;SDS011;54708;43.612;1.568;2023-11-19T09:07:12;11.32;;;7.95;;
67902;SDS011;54708;43.612;1.568;2023-11-19T09:09:37;11.68;;;8.38;;
67902;SDS011;54708;43.612;1.568;2023-11-19T09:12:03;13.68;;;7.80;;
67902;SDS011;54708;43.612;1.568;2023-11-19T09:14:29;10.63;;;7.35;;
67902;SDS011;54708;43.612;1.568;2023-11-19T09:16:55;8.07;;;6.15;;
67902;SDS011;54708;43.612;1.568;2023-11-19T09:19:21;9.55;;;7.18;;
67902;SDS011;54708;43.612;1.568;2023-11-19T09:21:46;13.88;;;7.93;;
67902;SDS011;54708;43.612;1.568;2023-11-19T09:24:14;10.40;;;7.30;;
67902;SDS011;54708;43.612;1.568;2023-11-19T09:26:39;13.20;;;8.30;;
67902;SDS011;54708;43.612;1.568;2023-11-19T09:29:06;9.50;;;7.82;;
67902;SDS011;54708;43.612;1.568;2023-11-19T09:31:32;15.38;;;9.95;;
67902;SDS011;54708;43.612;1.568;2023-11-19T09:33:58;17.40;;;9.07;;
67902;SDS011;54708;43.612;1.568;2023-11-19T09:36:23;11.45;;;8.73;;
67902;SDS011;54708;43.612;1.568;2023-11-19T09:38:48;19.80;;;9.45;;
67902;SDS011;54708;43.612;1.568;2023-11-19T09:41:14;11.73;;;8.65;;
67902;SDS011;54708;43.612;1.568;2023-11-19T09:43:39;11.32;;;8.80;;
67902;SDS011;54708;43.612;1.568;2023-11-19T09:46:06;11.80;;;8.38;;
67902;SDS011;54708;43.612;1.568;2023-11-19T09:48:32;12.32;;;8.50;;
67902;SDS011;54708;43.612;1.568;2023-11-19T09:50:59;9.32;;;7.55;;
67902;SDS011;54708;43.612;1.568;2023-11-19T09:53:25;10.57;;;7.68;;
67902;SDS011;54708;43.612;1.568;2023-11-19T09:55:51;14.43;;;8.30;;
67902;SDS011;54708;43.612;1.568;2023-11-19T09:58:18;9.82;;;7.55;;
67902;SDS011;54708;43.612;1.568;2023-11-19T10:00:43;7.50;;;6.70;;
67902;SDS011;54708;43.612;1.568;2023-11-19T10:03:09;11.63;;;6.90;;
67902;SDS011;54708;43.612;1.568;2023-11-19T10:05:37;9.60;;;7.50;;
67902;SDS011;54708;43.612;1.568;2023-11-19T10:08:04;11.73;;;6.78;;
67902;SDS011;54708;43.612;1.568;2023-11-19T10:10:30;10.63;;;6.00;;
67902;SDS011;54708;43.612;1.568;2023-11-19T10:12:55;8.13;;;5.70;;
67902;SDS011;54708;43.612;1.568;2023-11-19T10:15:21;7.07;;;5.85;;
67902;SDS011;54708;43.612;1.568;2023-11-19T10:17:49;5.70;;;5.03;;
67902;SDS011;54708;43.612;1.568;2023-11-19T10:20:14;8.23;;;6.25;;
67902;SDS011;54708;43.612;1.568;2023-11-19T10:22:40;9.25;;;5.63;;
67902;SDS011;54708;43.612;1.568;2023-11-19T10:25:10;7.90;;;5.70;;
67902;SDS011;54708;43.612;1.568;2023-11-19T10:27:48;6.43;;;5.47;;
67902;SDS011;54708;43.612;1.568;2023-11-19T10:30:13;8.43;;;5.88;;
67902;SDS011;54708;43.612;1.568;2023-11-19T10:32:42;8.50;;;5.38;;
67902;SDS011;54708;43.612;1.568;2023-11-19T10:35:08;9.70;;;6.72;;
67902;SDS011;54708;43.612;1.568;2023-11-19T10:37:34;9.45;;;6.20;;
67902;SDS011;54708;43.612;1.568;2023-11-19T10:40:02;9.18;;;5.35;;
67902;SDS011;54708;43.612;1.568;2023-11-19T10:42:30;11.35;;;5.95;;
67902;SDS011;54708;43.612;1.568;2023-11-19T10:44:55;8.57;;;5.68;;
67902;SDS011;54708;43.612;1.568;2023-11-19T10:47:21;10.35;;;6.80;;
67902;SDS011;54708;43.612;1.568;2023-11-19T10:49:47;10.55;;;6.53;;
67902;SDS011;54708;43.612;1.568;2023-11-19T10:52:15;8.38;;;5.93;;
67902;SDS011;54708;43.612;1.568;2023-11-19T10:54:44;14.40;;;5.80;;
67902;SDS011;54708;43.612;1.568;2023-11-19T10:57:10;7.90;;;5.68;;
67902;SDS011;54708;43.612;1.568;2023-11-19T10:59:37;9.80;;;4.70;;
67902;SDS011;54708;43.612;1.568;2023-11-19T11:02:03;9.70;;;5.82;;
67902;SDS011;54708;43.612;1.568;2023-11-19T11:04:32;6.65;;;5.65;;
67902;SDS011;54708;43.612;1.568;2023-11-19T11:06:59;10.95;;;5.38;;
67902;SDS011;54708;43.612;1.568;2023-11-19T11:09:26;9.60;;;6.15;;
67902;SDS011;54708;43.612;1.568;2023-11-19T11:11:52;20.23;;;8.13;;
67902;SDS011;54708;43.612;1.568;2023-11-19T11:14:18;7.45;;;5.40;;
67902;SDS011;54708;43.612;1.568;2023-11-19T11:16:46;8.43;;;6.18;;
67902;SDS011;54708;43.612;1.568;2023-11-19T11:19:11;7.82;;;5.45;;
67902;SDS011;54708;43.612;1.568;2023-11-19T11:21:40;9.55;;;6.88;;
67902;SDS011;54708;43.612;1.568;2023-11-19T11:33:06;7.13;;;5.60;;
67902;SDS011;54708;43.612;1.568;2023-11-19T11:38:39;9.68;;;6.18;;
67902;SDS011;54708;43.612;1.568;2023-11-19T11:41:22;10.07;;;5.35;;
67902;SDS011;54708;43.612;1.568;2023-11-19T11:49:02;6.55;;;5.45;;
67902;SDS011;54708;43.612;1.568;2023-11-19T11:54:09;7.70;;;5.35;;
67902;SDS011;54708;43.612;1.568;2023-11-19T11:57:00;8.13;;;5.43;;
67902;SDS011;54708;43.612;1.568;2023-11-19T11:59:26;6.50;;;4.68;;
67902;SDS011;54708;43.612;1.568;2023-11-19T12:01:58;7.22;;;4.85;;
67902;SDS011;54708;43.612;1.568;2023-11-19T12:04:26;8.45;;;4.53;;
67902;SDS011;54708;43.612;1.568;2023-11-19T12:09:41;6.25;;;3.85;;
67902;SDS011;54708;43.612;1.568;2023-11-19T12:12:20;4.50;;;3.53;;
67902;SDS011;54708;43.612;1.568;2023-11-19T12:14:59;6.53;;;4.25;;
67902;SDS011;54708;43.612;1.568;2023-11-19T12:17:46;6.30;;;4.57;;
67902;SDS011;54708;43.612;1.568;2023-11-19T12:20:14;5.60;;;4.15;;
67902;SDS011;54708;43.612;1.568;2023-11-19T12:22:41;7.78;;;4.65;;
67902;SDS011;54708;43.612;1.568;2023-11-19T12:25:07;6.93;;;3.88;;
67902;SDS011;54708;43.612;1.568;2023-11-19T12:27:34;7.47;;;4.05;;
67902;SDS011;54708;43.612;1.568;2023-11-19T12:30:00;4.05;;;3.67;;
67902;SDS011;54708;43.612;1.568;2023-11-19T12:32:25;4.20;;;3.80;;
67902;SDS011;54708;43.612;1.568;2023-11-19T12:34:51;5.55;;;3.67;;
67902;SDS011;54708;43.612;1.568;2023-11-19T12:37:16;6.95;;;4.30;;
67902;SDS011;54708;43.612;1.568;2023-11-19T12:39:42;7.47;;;4.50;;
67902;SDS011;54708;43.612;1.568;2023-11-19T12:42:07;6.13;;;3.65;;
67902;SDS011;54708;43.612;1.568;2023-11-19T12:44:32;7.50;;;3.72;;
67902;SDS011;54708;43.612;1.568;2023-11-19T12:47:02;7.50;;;3.88;;
67902;SDS011;54708;43.612;1.568;2023-11-19T12:49:28;12.68;;;4.93;;
67902;SDS011;54708;43.612;1.568;2023-11-19T12:51:53;5.28;;;3.80;;
67902;SDS011;54708;43.612;1.568;2023-11-19T12:54:19;4.90;;;3.72;;
67902;SDS011;54708;43.612;1.568;2023-11-19T12:56:53;6.32;;;3.90;;
67902;SDS011;54708;43.612;1.568;2023-11-19T12:59:19;5.55;;;3.83;;
67902;SDS011;54708;43.612;1.568;2023-11-19T13:01:53;7.50;;;3.67;;
67902;SDS011;54708;43.612;1.568;2023-11-19T13:04:22;9.10;;;3.60;;
67902;SDS011;54708;43.612;1.568;2023-11-19T13:06:47;6.15;;;4.30;;
67902;SDS011;54708;43.612;1.568;2023-11-19T13:09:28;7.65;;;4.53;;
67902;SDS011;54708;43.612;1.568;2023-11-19T13:11:54;12.30;;;8.05;;
67902;SDS011;54708;43.612;1.568;2023-11-19T13:14:22;6.60;;;3.60;;
67902;SDS011;54708;43.612;1.568;2023-11-19T13:16:48;5.57;;;4.10;;
67902;SDS011;54708;43.612;1.568;2023-11-19T13:19:14;4.82;;;3.33;;
67902;SDS011;54708;43.612;1.568;2023-11-19T13:21:43;5.82;;;3.55;;
67902;SDS011;54708;43.612;1.568;2023-11-19T13:24:12;4.45;;;3.45;;
67902;SDS011;54708;43.612;1.568;2023-11-19T13:26:38;4.53;;;2.80;;
67902;SDS011;54708;43.612;1.568;2023-11-19T13:29:03;4.72;;;3.38;;
67902;SDS011;54708;43.612;1.568;2023-11-19T13:31:29;5.85;;;2.88;;
67902;SDS011;54708;43.612;1.568;2023-11-19T13:33:54;4.45;;;3.00;;
67902;SDS011;54708;43.612;1.568;2023-11-19T13:36:20;5.13;;;3.30;;
67902;SDS011;54708;43.612;1.568;2023-11-19T13:38:45;4.53;;;3.33;;
67902;SDS011;54708;43.612;1.568;2023-11-19T13:41:11;3.53;;;2.72;;
67902;SDS011;54708;43.612;1.568;2023-11-19T13:43:38;5.85;;;3.22;;
67902;SDS011;54708;43.612;1.568;2023-11-19T13:46:04;3.60;;;2.83;;
67902;SDS011;54708;43.612;1.568;2023-11-19T13:48:30;4.50;;;2.42;;
67902;SDS011;54708;43.612;1.568;2023-11-19T13:50:55;6.70;;;3.80;;
67902;SDS011;54708;43.612;1.568;2023-11-19T13:53:21;5.18;;;2.92;;
67902;SDS011;54708;43.612;1.568;2023-11-19T13:55:47;3.40;;;3.10;;
67902;SDS011;54708;43.612;1.568;2023-11-19T13:58:13;3.92;;;3.38;;
67902;SDS011;54708;43.612;1.568;2023-11-19T14:00:38;5.30;;;3.58;;
67902;SDS011;54708;43.612;1.568;2023-11-19T14:03:04;5.05;;;3.35;;
67902;SDS011;54708;43.612;1.568;2023-11-19T14:05:30;5.47;;;3.42;;
67902;SDS011;54708;43.612;1.568;2023-11-19T14:07:55;4.43;;;2.78;;
67902;SDS011;54708;43.612;1.568;2023-11-19T14:10:22;6.88;;;4.07;;
67902;SDS011;54708;43.612;1.568;2023-11-19T14:12:47;6.38;;;3.38;;
67902;SDS011;54708;43.612;1.568;2023-11-19T14:15:14;4.05;;;3.53;;
67902;SDS011;54708;43.612;1.568;2023-11-19T14:17:42;4.75;;;3.90;;
67902;SDS011;54708;43.612;1.568;2023-11-19T14:20:08;4.47;;;3.25;;
67902;SDS011;54708;43.612;1.568;2023-11-19T14:22:37;5.38;;;3.30;;
67902;SDS011;54708;43.612;1.568;2023-11-19T14:25:06;7.82;;;3.72;;
67902;SDS011;54708;43.612;1.568;2023-11-19T14:27:35;5.68;;;3.50;;
67902;SDS011;54708;43.612;1.568;2023-11-19T14:30:02;6.00;;;4.20;;
67902;SDS011;54708;43.612;1.568;2023-11-19T14:32:28;6.00;;;4.25;;
67902;SDS011;54708;43.612;1.568;2023-11-19T14:34:54;6.95;;;3.60;;
67902;SDS011;54708;43.612;1.568;2023-11-19T14:37:20;5.45;;;4.60;;
67902;SDS011;54708;43.612;1.568;2023-11-19T14:39:45;3.83;;;3.45;;
67902;SDS011;54708;43.612;1.568;2023-11-19T14:42:11;4.85;;;3.58;;
67902;SDS011;54708;43.612;1.568;2023-11-19T14:44:36;4.97;;;2.90;;
67902;SDS011;54708;43.612;1.568;2023-11-19T14:47:01;5.28;;;3.22;;
67902;SDS011;54708;43.612;1.568;2023-11-19T14:49:27;4.78;;;3.30;;
67902;SDS011;54708;43.612;1.568;2023-11-19T14:51:52;5.22;;;3.55;;